Time;durP1;ratioP1;P1;durP2;ratioP2;P2;SDS_P1;SDS_P2;PMS_P1;PMS_P2;Temp;Humidity;BMP_temperature;BMP_pressure;BME280_temperature;BME280_humidity;BME280_pressure;Samples;Min_cycle;Max_cycle;Signal;HPM_P1;HPM_P2
2023/07/10 00:02:26;;;;;;;10.47;5.53;;;25.40;64.80;;;;;;5090492;28;20498;-82
2023/07/10 00:04:54;;;;;;;11.77;6.00;;;25.40;64.90;;;;;;5104946;28;20961;-80
2023/07/10 00:07:22;;;;;;;11.83;5.40;;;25.30;65.00;;;;;;5101336;28;20452;-81
2023/07/10 00:09:50;;;;;;;9.87;5.63;;;25.30;65.10;;;;;;5097649;28;20475;-80
2023/07/10 00:12:22;;;;;;;8.87;4.93;;;25.30;65.30;;;;;;5096033;28;20464;-80
2023/07/10 00:14:50;;;;;;;11.70;5.60;;;25.30;65.30;;;;;;5108684;28;20463;-80
2023/07/10 00:17:20;;;;;;;10.07;5.23;;;25.20;65.30;;;;;;5105486;28;20479;-79
2023/07/10 00:19:48;;;;;;;11.13;5.70;;;25.20;65.40;;;;;;5104097;28;20461;-81
2023/07/10 00:22:16;;;;;;;13.73;5.93;;;25.20;65.50;;;;;;5102684;28;20526;-81
2023/07/10 00:24:44;;;;;;;14.30;6.20;;;25.10;65.50;;;;;;5109772;28;20463;-81
2023/07/10 00:27:13;;;;;;;9.87;5.53;;;25.00;65.60;;;;;;5107407;28;20455;-81
2023/07/10 00:29:41;;;;;;;12.83;5.40;;;24.90;65.80;;;;;;5100906;28;20530;-80
2023/07/10 00:32:12;;;;;;;8.80;5.60;;;24.90;65.90;;;;;;5102371;27;20479;-82
2023/07/10 00:34:42;;;;;;;10.13;6.10;;;24.80;66.00;;;;;;5106151;27;20455;-81
2023/07/10 00:37:10;;;;;;;10.73;5.10;;;24.80;66.00;;;;;;5101239;28;20481;-80
2023/07/10 00:39:38;;;;;;;14.67;5.47;;;24.90;66.00;;;;;;5099320;28;20456;-81
2023/07/10 00:42:15;;;;;;;11.60;6.00;;;24.80;66.00;;;;;;5104950;28;20476;-81
2023/07/10 00:44:47;;;;;;;14.30;6.20;;;24.90;66.10;;;;;;5101875;28;20462;-80
2023/07/10 00:47:20;;;;;;;13.80;6.17;;;24.80;66.10;;;;;;5102691;28;20819;-81
2023/07/10 00:49:53;;;;;;;13.23;5.60;;;24.80;66.20;;;;;;5106966;28;20463;-81
2023/07/10 00:52:25;;;;;;;9.00;5.83;;;24.80;66.30;;;;;;5104322;28;20961;-80
2023/07/10 00:54:55;;;;;;;9.47;5.20;;;24.80;66.40;;;;;;5100141;28;20536;-82
2023/07/10 00:57:33;;;;;;;12.17;5.87;;;24.80;66.40;;;;;;5100359;28;20488;-81
2023/07/10 01:00:03;;;;;;;9.93;5.17;;;24.70;66.40;;;;;;5104382;28;20534;-80
2023/07/10 01:02:31;;;;;;;11.43;6.13;;;24.70;66.50;;;;;;5102573;28;20482;-80
2023/07/10 01:05:04;;;;;;;16.23;7.03;;;24.80;66.50;;;;;;5103798;28;21049;-81
2023/07/10 01:07:37;;;;;;;11.37;6.27;;;24.80;66.60;;;;;;5101313;28;20460;-80
2023/07/10 01:10:10;;;;;;;13.23;6.17;;;24.80;66.60;;;;;;5101258;28;20448;-80
2023/07/10 01:12:40;;;;;;;11.83;5.40;;;24.80;66.60;;;;;;5101776;28;20605;-81
2023/07/10 01:15:09;;;;;;;9.80;5.83;;;24.80;66.60;;;;;;5110190;28;20444;-81
2023/07/10 01:17:38;;;;;;;13.67;6.43;;;24.80;66.60;;;;;;5109867;28;20842;-80
2023/07/10 01:20:34;;;;;;;12.47;5.70;;;24.70;66.60;;;;;;5101959;28;20449;-80
2023/07/10 01:23:05;;;;;;;13.57;6.80;;;24.70;66.70;;;;;;5101362;28;20456;-80
2023/07/10 01:25:40;;;;;;;11.87;6.23;;;24.70;66.90;;;;;;5101841;28;20487;-81
2023/07/10 01:28:10;;;;;;;10.03;5.80;;;24.70;66.80;;;;;;5103092;28;20466;-81
2023/07/10 01:30:43;;;;;;;11.70;6.50;;;24.70;66.80;;;;;;5098162;28;20837;-81
2023/07/10 01:33:55;;;;;;;10.93;6.43;;;24.70;66.90;;;;;;5102463;28;20494;-81
2023/07/10 01:36:27;;;;;;;10.47;6.10;;;24.60;67.00;;;;;;5099384;28;20452;-80
2023/07/10 01:39:03;;;;;;;10.80;6.43;;;24.50;67.00;;;;;;5102069;28;20478;-81
2023/07/10 01:41:34;;;;;;;12.13;7.10;;;24.50;67.20;;;;;;5103492;28;20466;-82
2023/07/10 01:44:02;;;;;;;14.30;6.47;;;24.50;67.20;;;;;;5104747;28;20483;-81
2023/07/10 01:46:30;;;;;;;14.53;7.10;;;24.40;67.20;;;;;;5094170;28;20456;-80
2023/07/10 01:49:01;;;;;;;12.30;6.50;;;24.40;67.30;;;;;;5102484;28;20858;-80
2023/07/10 01:51:29;;;;;;;16.00;6.20;;;24.30;67.50;;;;;;5103005;28;20452;-80
2023/07/10 01:54:04;;;;;;;10.80;6.47;;;24.30;67.50;;;;;;5100140;28;20461;-82
2023/07/10 01:56:33;;;;;;;11.23;6.60;;;24.30;67.60;;;;;;5093897;28;20494;-79
2023/07/10 01:59:01;;;;;;;8.67;5.50;;;24.30;67.70;;;;;;5097735;28;20575;-80
2023/07/10 02:01:29;;;;;;;12.33;6.10;;;24.40;67.70;;;;;;5101592;28;20563;-80
2023/07/10 02:03:57;;;;;;;12.00;6.93;;;24.30;67.80;;;;;;5100648;28;20879;-81
2023/07/10 02:06:26;;;;;;;11.80;6.23;;;24.30;67.80;;;;;;5101634;28;20534;-80
2023/07/10 02:08:54;;;;;;;13.67;6.80;;;24.30;67.80;;;;;;5101999;28;20453;-80
2023/07/10 02:11:24;;;;;;;16.23;6.50;;;24.30;67.90;;;;;;5104979;28;21781;-79
2023/07/10 02:13:52;;;;;;;11.20;6.20;;;24.30;67.90;;;;;;5102906;28;21200;-79
2023/07/10 02:16:20;;;;;;;12.57;6.30;;;24.30;67.90;;;;;;5106420;28;20961;-79
2023/07/10 02:18:49;;;;;;;14.10;6.10;;;24.30;67.90;;;;;;5103187;28;20463;-80
2023/07/10 02:21:16;;;;;;;10.30;6.77;;;24.20;68.00;;;;;;5101656;28;20464;-80
2023/07/10 02:23:47;;;;;;;18.40;7.03;;;24.20;68.00;;;;;;5103207;28;20864;-79
2023/07/10 02:26:16;;;;;;;11.60;6.80;;;24.10;68.10;;;;;;5097576;28;20471;-78
2023/07/10 02:28:46;;;;;;;14.33;7.47;;;24.10;68.20;;;;;;5104792;28;20820;-78
2023/07/10 02:31:20;;;;;;;13.63;7.23;;;24.10;68.30;;;;;;5105035;28;20564;-79
2023/07/10 02:33:48;;;;;;;14.53;6.93;;;24.10;68.40;;;;;;5105922;28;20451;-79
2023/07/10 02:36:16;;;;;;;12.43;6.70;;;24.00;68.40;;;;;;5103007;28;20462;-79
2023/07/10 02:38:44;;;;;;;10.50;6.50;;;24.00;68.50;;;;;;5111045;28;20464;-79
2023/07/10 02:41:12;;;;;;;12.00;6.57;;;24.00;68.50;;;;;;5103140;28;21061;-79
2023/07/10 02:43:40;;;;;;;15.63;6.70;;;24.00;68.50;;;;;;5103345;28;20471;-79
2023/07/10 02:46:09;;;;;;;12.20;6.50;;;24.10;68.50;;;;;;5106177;28;20457;-79
2023/07/10 02:48:38;;;;;;;11.57;7.17;;;24.10;68.50;;;;;;5106788;28;20454;-79
2023/07/10 02:51:06;;;;;;;10.20;6.43;;;24.10;68.40;;;;;;5107236;28;20517;-79
2023/07/10 02:53:34;;;;;;;14.53;6.70;;;24.00;68.50;;;;;;5102259;28;20463;-79
2023/07/10 02:56:02;;;;;;;19.77;5.70;;;24.00;68.50;;;;;;5107489;28;20567;-79
2023/07/10 02:58:30;;;;;;;12.20;6.10;;;24.00;68.50;;;;;;5104423;28;20464;-79
2023/07/10 03:01:01;;;;;;;11.13;7.03;;;24.00;68.50;;;;;;5105197;28;20881;-79
2023/07/10 03:03:30;;;;;;;13.50;7.70;;;24.00;68.50;;;;;;5103168;28;20475;-79
2023/07/10 03:06:01;;;;;;;11.37;6.70;;;23.90;68.50;;;;;;5101780;28;20563;-79
2023/07/10 03:08:30;;;;;;;13.57;6.63;;;23.90;68.50;;;;;;5106072;28;20540;-78
2023/07/10 03:11:00;;;;;;;16.70;7.47;;;23.80;68.50;;;;;;5103883;28;20467;-79
2023/07/10 03:13:28;;;;;;;10.80;6.60;;;23.80;68.60;;;;;;5105147;28;20534;-79
2023/07/10 03:16:00;;;;;;;14.43;7.10;;;23.80;68.60;;;;;;5106719;27;20453;-79
2023/07/10 03:18:30;;;;;;;11.30;6.70;;;23.70;68.70;;;;;;5109085;27;20468;-79
2023/07/10 03:20:59;;;;;;;18.37;7.40;;;23.70;68.70;;;;;;5105595;28;20971;-79
2023/07/10 03:23:27;;;;;;;11.80;6.60;;;23.70;68.80;;;;;;5105074;28;20561;-79
2023/07/10 03:25:55;;;;;;;11.83;6.97;;;23.70;68.70;;;;;;5106036;28;20838;-79
2023/07/10 03:28:24;;;;;;;11.23;6.50;;;23.80;68.80;;;;;;5104063;28;20817;-79
2023/07/10 03:30:52;;;;;;;12.03;7.20;;;23.70;68.80;;;;;;5107164;28;20827;-78
2023/07/10 03:33:20;;;;;;;11.17;6.60;;;23.70;68.80;;;;;;5104744;27;20888;-78
2023/07/10 03:35:58;;;;;;;13.20;7.20;;;23.70;68.80;;;;;;5106338;28;20464;-79
2023/07/10 03:38:26;;;;;;;10.43;6.70;;;23.70;69.00;;;;;;5101162;28;20480;-78
2023/07/10 03:40:55;;;;;;;11.97;7.13;;;23.70;69.10;;;;;;5098800;28;20450;-79
2023/07/10 03:43:24;;;;;;;12.90;7.57;;;23.70;69.10;;;;;;5107919;28;20491;-78
2023/07/10 03:45:53;;;;;;;11.33;6.20;;;23.70;69.00;;;;;;5099608;28;20460;-78
2023/07/10 03:48:21;;;;;;;12.80;7.50;;;23.70;69.10;;;;;;5100356;28;20456;-79
2023/07/10 03:50:51;;;;;;;14.93;6.97;;;23.70;69.10;;;;;;5105778;28;20456;-80
2023/07/10 03:53:19;;;;;;;13.30;6.43;;;23.70;69.10;;;;;;5104115;28;20574;-79
2023/07/10 03:55:51;;;;;;;13.47;7.47;;;23.70;69.10;;;;;;5107619;28;20541;-80
2023/07/10 03:58:22;;;;;;;13.50;7.33;;;23.80;69.20;;;;;;5100973;28;20476;-79
2023/07/10 04:00:51;;;;;;;11.93;7.00;;;23.80;69.20;;;;;;5101720;28;20480;-80
2023/07/10 04:03:23;;;;;;;14.70;7.23;;;23.80;69.30;;;;;;5112997;27;21057;-79
2023/07/10 04:05:54;;;;;;;12.90;6.90;;;23.80;69.40;;;;;;5100835;28;22516;-79
2023/07/10 04:08:23;;;;;;;10.80;6.30;;;23.70;69.50;;;;;;5102402;28;20543;-79
2023/07/10 04:10:52;;;;;;;12.03;6.93;;;23.80;69.60;;;;;;5107940;28;20448;-79
2023/07/10 04:13:20;;;;;;;10.53;6.73;;;23.80;69.70;;;;;;5103082;27;20971;-79
2023/07/10 04:16:02;;;;;;;15.03;7.83;;;23.80;69.70;;;;;;5102445;28;20464;-79
2023/07/10 04:18:33;;;;;;;13.30;7.33;;;23.90;69.80;;;;;;5099158;27;20478;-79
2023/07/10 04:21:06;;;;;;;14.80;7.13;;;23.90;69.80;;;;;;5101738;28;21532;-80
2023/07/10 04:23:34;;;;;;;11.73;7.13;;;23.90;69.80;;;;;;5099453;27;20945;-80
2023/07/10 04:26:02;;;;;;;14.80;8.03;;;23.90;69.80;;;;;;5102515;28;20449;-79
2023/07/10 04:28:30;;;;;;;11.80;7.23;;;23.90;69.80;;;;;;5094486;28;20468;-79
2023/07/10 04:30:58;;;;;;;17.53;7.87;;;23.90;69.80;;;;;;5107727;27;20476;-80
2023/07/10 04:33:26;;;;;;;12.20;7.03;;;23.90;69.90;;;;;;5117701;27;20517;-80
2023/07/10 04:35:56;;;;;;;12.43;7.33;;;23.90;69.90;;;;;;5106283;28;20875;-82
2023/07/10 04:38:28;;;;;;;16.90;7.40;;;24.00;70.00;;;;;;5105757;28;20487;-79
2023/07/10 04:40:57;;;;;;;12.97;8.67;;;24.00;70.00;;;;;;5098302;28;20460;-80
2023/07/10 04:43:26;;;;;;;13.30;8.07;;;24.10;70.10;;;;;;5100705;28;20453;-81
2023/07/10 04:45:56;;;;;;;16.50;7.63;;;24.10;70.10;;;;;;5099086;28;20547;-79
2023/07/10 04:48:26;;;;;;;13.63;8.13;;;24.20;70.10;;;;;;5097854;28;20548;-79
2023/07/10 04:50:56;;;;;;;15.73;7.47;;;24.20;70.30;;;;;;5105500;28;21054;-81
2023/07/10 04:53:25;;;;;;;13.47;7.60;;;24.30;70.40;;;;;;5109159;28;20945;-81
2023/07/10 04:55:54;;;;;;;14.67;8.30;;;24.50;70.50;;;;;;5103852;28;20872;-81
2023/07/10 04:58:24;;;;;;;13.50;7.77;;;24.70;70.40;;;;;;5105894;28;20452;-80
2023/07/10 05:00:56;;;;;;;12.90;7.70;;;24.80;70.40;;;;;;5100769;28;20475;-80
2023/07/10 05:03:24;;;;;;;15.20;7.43;;;25.00;70.30;;;;;;5094315;28;20460;-79
2023/07/10 05:05:55;;;;;;;12.77;7.30;;;25.20;70.20;;;;;;5100340;28;20490;-78
2023/07/10 05:08:25;;;;;;;15.13;7.27;;;25.40;70.10;;;;;;5104768;28;20539;-81
2023/07/10 05:10:54;;;;;;;15.17;7.40;;;25.60;70.00;;;;;;5102263;28;20480;-79
2023/07/10 05:13:24;;;;;;;10.17;6.43;;;25.80;69.80;;;;;;5105450;28;20463;-80
2023/07/10 05:15:53;;;;;;;13.40;6.57;;;26.00;69.60;;;;;;5100450;28;20868;-78
2023/07/10 05:18:21;;;;;;;18.17;7.10;;;26.20;69.50;;;;;;5105254;28;20456;-80
2023/07/10 05:20:49;;;;;;;14.77;6.90;;;26.30;69.30;;;;;;5099087;28;20474;-81
2023/07/10 05:23:17;;;;;;;16.97;7.17;;;26.30;69.10;;;;;;5105498;28;20460;-79
2023/07/10 05:25:57;;;;;;;11.53;6.40;;;26.40;68.90;;;;;;5104514;28;20456;-79
2023/07/10 05:28:26;;;;;;;11.80;6.93;;;26.40;68.90;;;;;;5103004;28;21100;-81
2023/07/10 05:30:55;;;;;;;10.20;6.53;;;26.60;68.90;;;;;;5102286;28;20464;-80
2023/07/10 05:33:43;;;;;;;10.07;6.83;;;26.70;68.60;;;;;;5100209;28;20982;-81
2023/07/10 05:36:13;;;;;;;11.60;6.90;;;26.90;68.30;;;;;;5099378;28;20460;-78
2023/07/10 05:38:41;;;;;;;15.40;7.90;;;27.10;68.30;;;;;;5106145;28;20898;-79
2023/07/10 05:41:11;;;;;;;11.80;7.30;;;27.30;68.20;;;;;;5101937;28;20497;-80
2023/07/10 05:43:39;;;;;;;13.87;7.87;;;27.50;67.30;;;;;;5101637;28;20459;-81
2023/07/10 05:46:07;;;;;;;10.80;6.57;;;27.50;66.70;;;;;;5104353;28;20445;-81
2023/07/10 05:48:36;;;;;;;11.93;7.90;;;27.40;66.40;;;;;;5100487;28;20449;-81
2023/07/10 05:51:04;;;;;;;11.00;7.70;;;27.30;66.30;;;;;;5104119;28;20458;-81
2023/07/10 05:53:34;;;;;;;13.47;8.10;;;27.20;66.30;;;;;;5107588;28;20448;-80
2023/07/10 05:56:03;;;;;;;11.37;7.47;;;27.10;66.40;;;;;;5104626;28;20444;-81
2023/07/10 05:58:35;;;;;;;13.00;8.70;;;27.00;66.50;;;;;;5099407;28;20458;-79
2023/07/10 06:01:03;;;;;;;11.07;7.50;;;26.90;66.70;;;;;;5097658;28;20476;-81
2023/07/10 06:03:33;;;;;;;14.97;6.80;;;27.00;66.50;;;;;;5100024;28;20859;-80
2023/07/10 06:06:03;;;;;;;12.20;7.57;;;27.00;66.30;;;;;;5109340;28;20458;-79
2023/07/10 06:08:33;;;;;;;14.13;7.90;;;26.90;66.30;;;;;;5109660;28;20466;-80
2023/07/10 06:11:02;;;;;;;13.07;8.57;;;26.80;66.40;;;;;;5100414;28;20997;-80
2023/07/10 06:13:30;;;;;;;11.93;7.17;;;26.70;66.50;;;;;;5101052;28;20451;-80
2023/07/10 06:16:00;;;;;;;11.57;7.43;;;26.70;66.60;;;;;;5099034;28;21198;-79
2023/07/10 06:18:28;;;;;;;14.77;8.60;;;26.60;66.80;;;;;;5101931;28;20463;-79
2023/07/10 06:20:59;;;;;;;12.63;9.00;;;26.60;66.80;;;;;;5106535;28;20467;-81
2023/07/10 06:23:29;;;;;;;15.90;8.43;;;26.50;66.90;;;;;;5117878;27;20955;-79
2023/07/10 06:25:59;;;;;;;13.20;7.73;;;26.50;67.00;;;;;;5102301;28;20819;-81
2023/07/10 06:28:31;;;;;;;12.37;8.33;;;26.50;67.10;;;;;;5103091;28;20470;-82
2023/07/10 06:31:03;;;;;;;15.63;8.00;;;26.40;67.20;;;;;;5106734;28;20570;-80
2023/07/10 06:33:34;;;;;;;13.90;8.13;;;26.40;67.30;;;;;;5104104;28;20471;-81
2023/07/10 06:36:04;;;;;;;11.60;7.37;;;26.40;67.30;;;;;;5101155;28;20645;-79
2023/07/10 06:38:33;;;;;;;13.50;8.23;;;26.40;67.30;;;;;;5105302;28;20471;-82
2023/07/10 06:41:01;;;;;;;13.30;8.73;;;26.40;67.60;;;;;;5109012;28;20463;-81
2023/07/10 06:43:30;;;;;;;14.63;7.73;;;26.40;67.70;;;;;;5101327;28;20555;-81
2023/07/10 06:45:58;;;;;;;13.40;6.30;;;26.50;67.70;;;;;;5105719;28;20474;-81
2023/07/10 06:48:28;;;;;;;12.37;7.00;;;26.50;67.60;;;;;;5103317;28;20513;-79
2023/07/10 06:50:57;;;;;;;15.17;8.33;;;26.60;67.60;;;;;;5106356;27;20456;-80
2023/07/10 06:53:26;;;;;;;11.40;7.37;;;26.60;67.60;;;;;;5104484;28;20507;-80
2023/07/10 06:55:56;;;;;;;10.63;6.90;;;26.60;67.60;;;;;;5103715;28;20464;-82
2023/07/10 06:58:25;;;;;;;13.40;7.70;;;26.60;67.60;;;;;;5099512;28;20440;-80
2023/07/10 07:00:55;;;;;;;10.27;6.83;;;26.60;67.70;;;;;;5104198;28;20464;-81
2023/07/10 07:03:24;;;;;;;17.13;7.67;;;26.60;67.60;;;;;;5109077;28;20577;-79
2023/07/10 07:05:55;;;;;;;15.13;6.90;;;26.70;67.60;;;;;;5101068;28;20460;-81
2023/07/10 07:08:24;;;;;;;12.47;6.87;;;26.80;67.50;;;;;;5103867;27;20471;-81
2023/07/10 07:10:53;;;;;;;13.80;7.57;;;26.80;67.50;;;;;;5101619;28;20491;-81
2023/07/10 07:13:22;;;;;;;13.20;7.30;;;26.60;67.60;;;;;;5119760;27;21016;-79
2023/07/10 07:15:51;;;;;;;12.73;7.17;;;26.70;67.60;;;;;;5103516;28;20537;-80
2023/07/10 07:18:20;;;;;;;13.17;7.43;;;26.70;67.60;;;;;;5101731;28;20840;-79
2023/07/10 07:20:49;;;;;;;15.37;7.90;;;26.70;67.70;;;;;;5107419;28;20526;-79
2023/07/10 07:23:19;;;;;;;15.27;8.40;;;26.70;67.80;;;;;;5105307;28;20459;-80
2023/07/10 07:25:47;;;;;;;13.30;8.27;;;26.80;67.70;;;;;;5105478;28;20456;-79
2023/07/10 07:28:15;;;;;;;11.43;7.80;;;26.80;67.70;;;;;;5106992;28;20453;-80
2023/07/10 07:30:47;;;;;;;12.50;7.60;;;26.80;67.70;;;;;;5099905;28;20476;-80
2023/07/10 07:33:17;;;;;;;12.50;8.47;;;26.80;67.70;;;;;;5105992;28;21020;-81
2023/07/10 07:35:45;;;;;;;13.80;8.07;;;26.80;67.80;;;;;;5106897;28;20459;-79
2023/07/10 07:38:14;;;;;;;15.77;8.23;;;26.80;68.00;;;;;;5099406;28;20557;-80
2023/07/10 07:40:43;;;;;;;12.10;8.50;;;26.80;68.00;;;;;;5103302;28;20476;-79
2023/07/10 07:43:11;;;;;;;13.70;7.97;;;26.80;68.00;;;;;;5103865;28;20942;-78
2023/07/10 07:45:39;;;;;;;14.67;8.90;;;26.80;68.10;;;;;;5107025;28;20466;-78
2023/07/10 07:48:07;;;;;;;13.87;8.77;;;26.80;68.10;;;;;;5103418;28;20463;-79
2023/07/10 07:50:35;;;;;;;12.43;7.70;;;26.90;68.20;;;;;;5100334;28;20457;-81
2023/07/10 07:53:03;;;;;;;16.60;8.70;;;26.90;68.30;;;;;;5103104;28;20464;-81
2023/07/10 07:55:30;;;;;;;15.63;9.70;;;26.90;68.30;;;;;;5106535;28;21217;-80
2023/07/10 07:58:00;;;;;;;13.33;9.37;;;26.90;68.40;;;;;;5100586;28;20959;-79
2023/07/10 08:00:27;;;;;;;15.77;10.23;;;27.00;68.40;;;;;;5104514;28;20895;-79
2023/07/10 08:02:56;;;;;;;13.43;9.40;;;27.00;68.40;;;;;;5101472;28;20539;-81
2023/07/10 08:05:24;;;;;;;14.50;10.07;;;27.00;68.20;;;;;;5102395;28;20513;-80
2023/07/10 08:07:55;;;;;;;16.17;10.20;;;27.10;68.20;;;;;;5096298;28;20515;-81
2023/07/10 08:10:23;;;;;;;14.70;9.57;;;27.10;68.30;;;;;;5103281;28;20456;-81
2023/07/10 08:12:51;;;;;;;13.27;9.43;;;27.10;68.30;;;;;;5097331;28;20464;-80
2023/07/10 08:15:20;;;;;;;13.50;9.20;;;27.10;68.30;;;;;;5105569;28;20464;-79
2023/07/10 08:17:48;;;;;;;13.20;9.60;;;27.20;68.20;;;;;;5105417;28;20840;-79
2023/07/10 08:20:16;;;;;;;14.97;9.37;;;27.20;68.20;;;;;;5104323;28;20463;-80
2023/07/10 08:22:44;;;;;;;15.40;9.80;;;27.30;68.00;;;;;;5101997;28;20516;-79
2023/07/10 08:25:12;;;;;;;13.20;9.27;;;27.40;67.80;;;;;;5102152;28;20462;-80
2023/07/10 08:27:41;;;;;;;12.83;9.50;;;27.40;67.80;;;;;;5101578;28;20570;-79
2023/07/10 08:30:10;;;;;;;16.83;9.70;;;27.50;67.60;;;;;;5104682;28;20498;-81
2023/07/10 08:32:39;;;;;;;17.63;9.97;;;27.50;67.50;;;;;;5101106;28;21187;-80
2023/07/10 08:35:08;;;;;;;13.83;8.87;;;27.60;67.30;;;;;;5102784;28;20460;-81
2023/07/10 08:37:37;;;;;;;15.03;10.47;;;27.60;67.30;;;;;;5106360;28;20466;-80
2023/07/10 08:40:07;;;;;;;14.37;10.40;;;27.70;67.20;;;;;;5106592;28;20814;-81
2023/07/10 08:42:35;;;;;;;13.60;11.03;;;27.70;67.20;;;;;;5106053;28;20465;-80
2023/07/10 08:45:04;;;;;;;13.33;10.30;;;27.70;67.20;;;;;;5101845;28;20467;-80
2023/07/10 08:47:36;;;;;;;15.90;10.50;;;27.70;67.10;;;;;;5104047;28;20456;-80
2023/07/10 08:50:12;;;;;;;15.27;10.57;;;27.70;67.10;;;;;;5103226;28;20452;-81
2023/07/10 08:52:46;;;;;;;17.37;10.43;;;27.70;67.10;;;;;;5099757;28;20456;-80
2023/07/10 08:55:18;;;;;;;15.83;10.97;;;27.70;67.20;;;;;;5102757;28;20540;-80
2023/07/10 08:57:54;;;;;;;16.77;10.63;;;27.80;67.10;;;;;;5096368;28;20789;-80
2023/07/10 09:00:24;;;;;;;15.43;11.00;;;27.80;67.30;;;;;;5104470;28;20487;-80
2023/07/10 09:02:58;;;;;;;19.40;11.97;;;27.80;67.20;;;;;;5100339;28;20490;-81
2023/07/10 09:05:30;;;;;;;14.43;11.10;;;27.80;67.10;;;;;;5105883;28;20467;-79
2023/07/10 09:08:03;;;;;;;16.00;12.27;;;27.80;67.00;;;;;;5103518;28;20461;-80
2023/07/10 09:10:39;;;;;;;16.67;12.33;;;27.90;67.10;;;;;;5102343;28;20821;-80
2023/07/10 09:13:12;;;;;;;19.00;13.03;;;27.90;67.20;;;;;;5105213;28;20459;-80
2023/07/10 09:15:45;;;;;;;17.43;12.80;;;28.00;67.20;;;;;;5107050;28;20781;-79
2023/07/10 09:18:21;;;;;;;15.80;12.50;;;28.00;67.10;;;;;;5101594;28;20462;-80
2023/07/10 09:20:53;;;;;;;18.77;14.13;;;28.00;67.10;;;;;;5096596;28;20976;-80
2023/07/10 09:23:24;;;;;;;17.97;13.83;;;28.00;67.10;;;;;;5101663;28;20457;-79
2023/07/10 09:25:57;;;;;;;18.10;13.10;;;28.00;67.20;;;;;;5100706;28;20564;-80
2023/07/10 09:28:26;;;;;;;16.90;12.67;;;28.00;67.20;;;;;;5092779;28;20466;-79
2023/07/10 09:31:02;;;;;;;17.97;14.17;;;28.00;67.40;;;;;;5098926;28;20465;-79
2023/07/10 09:33:38;;;;;;;18.33;14.30;;;28.00;67.50;;;;;;5094668;28;20538;-78
2023/07/10 09:36:15;;;;;;;17.87;13.70;;;28.10;67.30;;;;;;5107535;28;20451;-80
2023/07/10 09:38:45;;;;;;;17.87;14.07;;;28.10;67.40;;;;;;5102614;28;20791;-80
2023/07/10 09:41:19;;;;;;;18.57;14.07;;;28.00;67.60;;;;;;5101726;28;20836;-79
2023/07/10 09:43:53;;;;;;;18.17;14.20;;;28.10;67.50;;;;;;5102690;28;20452;-80
2023/07/10 09:46:24;;;;;;;16.93;13.83;;;28.10;67.30;;;;;;5111421;28;20471;-79
2023/07/10 09:48:53;;;;;;;20.70;14.47;;;28.20;67.20;;;;;;5108222;28;20463;-80
2023/07/10 09:51:23;;;;;;;17.37;13.83;;;28.20;67.10;;;;;;5107448;28;20953;-80
2023/07/10 09:53:59;;;;;;;22.70;14.90;;;28.10;66.90;;;;;;5103976;28;20912;-80
2023/07/10 09:56:32;;;;;;;18.87;14.93;;;28.20;66.80;;;;;;5110119;28;20470;-80
2023/07/10 09:59:00;;;;;;;21.27;15.20;;;28.20;66.80;;;;;;5104112;28;20962;-81
2023/07/10 10:01:30;;;;;;;20.10;15.37;;;28.20;66.60;;;;;;5107574;28;20488;-79
2023/07/10 10:04:01;;;;;;;19.20;15.20;;;28.20;66.40;;;;;;5112326;28;20475;-81
2023/07/10 10:06:32;;;;;;;20.33;15.50;;;28.20;66.40;;;;;;5111373;28;20531;-81
2023/07/10 10:09:12;;;;;;;21.40;15.40;;;28.30;66.10;;;;;;5111735;28;20542;-81
2023/07/10 10:11:45;;;;;;;18.03;15.37;;;28.30;66.10;;;;;;5101775;28;20921;-81
2023/07/10 10:14:18;;;;;;;17.60;15.00;;;28.30;66.10;;;;;;5099639;28;20474;-82
2023/07/10 10:16:51;;;;;;;21.40;17.13;;;28.20;66.10;;;;;;5103904;28;20516;-80
2023/07/10 10:19:23;;;;;;;21.17;15.00;;;28.20;66.10;;;;;;5098769;28;20467;-81
2023/07/10 10:21:53;;;;;;;19.50;16.00;;;28.30;65.80;;;;;;5106510;28;20525;-81
2023/07/10 10:24:21;;;;;;;17.53;15.27;;;28.40;65.70;;;;;;5104831;28;21082;-79
2023/07/10 10:27:11;;;;;;;19.87;15.90;;;28.40;65.50;;;;;;5103816;28;20443;-78
2023/07/10 10:30:01;;;;;;;18.47;14.93;;;28.50;65.40;;;;;;5103465;28;21031;-81
2023/07/10 10:32:36;;;;;;;22.73;15.67;;;28.60;65.30;;;;;;5102461;28;20478;-80
2023/07/10 10:35:16;;;;;;;17.57;14.90;;;28.70;65.20;;;;;;5109522;28;20440;-78
2023/07/10 10:38:09;;;;;;;16.70;14.20;;;28.80;65.10;;;;;;5101781;28;20460;-82
2023/07/10 10:40:42;;;;;;;21.30;14.57;;;28.80;64.80;;;;;;5103755;28;20470;-80
2023/07/10 10:43:34;;;;;;;25.03;15.60;;;28.70;64.70;;;;;;5101360;28;20487;-79
2023/07/10 10:46:09;;;;;;;16.90;14.80;;;28.70;64.50;;;;;;5103685;28;20509;-80
2023/07/10 10:48:46;;;;;;;18.37;14.43;;;28.80;64.50;;;;;;5096917;28;20539;-78
2023/07/10 10:51:28;;;;;;;20.03;14.10;;;28.80;64.40;;;;;;5103485;28;20442;-80
2023/07/10 10:54:10;;;;;;;18.50;14.20;;;28.90;64.50;;;;;;5106612;28;20463;-80
2023/07/10 10:57:22;;;;;;;16.93;12.93;;;28.90;64.30;;;;;;5096943;28;21127;-79
2023/07/10 11:00:00;;;;;;;19.93;13.90;;;28.90;64.00;;;;;;5099178;28;20469;-80
2023/07/10 11:02:44;;;;;;;17.53;13.40;;;28.90;64.20;;;;;;5099436;28;20475;-79
2023/07/10 11:05:35;;;;;;;18.17;14.33;;;29.00;63.80;;;;;;5098942;28;20517;-79
2023/07/10 11:08:09;;;;;;;19.07;14.10;;;29.10;63.70;;;;;;5103558;28;20462;-80
2023/07/10 11:10:41;;;;;;;18.73;13.80;;;29.10;63.50;;;;;;5103338;27;20572;-80
2023/07/10 11:13:19;;;;;;;17.00;13.03;;;29.10;63.40;;;;;;5103667;28;20434;-80
2023/07/10 11:15:47;;;;;;;17.87;13.73;;;29.10;63.30;;;;;;5106812;28;20462;-78
2023/07/10 11:18:16;;;;;;;16.37;13.70;;;29.10;63.20;;;;;;5101962;27;20456;-81
2023/07/10 11:20:45;;;;;;;18.53;13.50;;;29.10;63.10;;;;;;5101485;28;20463;-79
2023/07/10 11:23:37;;;;;;;17.30;12.40;;;29.00;62.90;;;;;;5102355;28;20468;-79
2023/07/10 11:26:14;;;;;;;17.67;12.90;;;28.90;62.60;;;;;;5106909;28;20554;-80
2023/07/10 11:28:50;;;;;;;15.83;12.97;;;28.90;62.70;;;;;;5098581;28;20464;-79
2023/07/10 11:31:40;;;;;;;14.80;11.90;;;29.00;62.70;;;;;;5101179;28;20781;-80
2023/07/10 11:34:54;;;;;;;16.30;12.93;;;28.90;62.80;;;;;;5099755;28;20524;-78
2023/07/10 11:37:58;;;;;;;16.87;13.23;;;29.10;62.70;;;;;;5105703;28;21032;-81
2023/07/10 11:40:53;;;;;;;20.10;13.90;;;29.20;62.50;;;;;;5098631;28;21146;-80
2023/07/10 11:44:11;;;;;;;20.93;12.77;;;29.20;62.40;;;;;;5114453;27;20550;-79
2023/07/10 11:46:59;;;;;;;17.03;13.57;;;29.20;62.30;;;;;;5102073;28;20589;-78
2023/07/10 11:49:28;;;;;;;15.77;12.83;;;29.30;62.40;;;;;;5107579;28;21156;-79
2023/07/10 11:52:30;;;;;;;15.13;12.53;;;29.30;62.40;;;;;;5102389;28;20442;-81
2023/07/10 11:55:25;;;;;;;19.07;12.00;;;29.30;62.20;;;;;;5004945;28;20570;-79
2023/07/10 11:58:27;;;;;;;14.17;11.50;;;29.30;62.20;;;;;;5096758;28;20533;-80
2023/07/10 12:01:14;;;;;;;17.80;11.80;;;29.30;62.40;;;;;;5045715;28;20466;-80
2023/07/10 12:03:43;;;;;;;16.47;12.30;;;29.40;62.20;;;;;;5043668;28;20513;-81
2023/07/10 12:06:16;;;;;;;15.50;11.67;;;29.50;61.90;;;;;;5078277;28;20784;-81
2023/07/10 12:08:46;;;;;;;13.77;11.03;;;29.50;61.80;;;;;;5108733;28;21162;-78
2023/07/10 12:11:32;;;;;;;13.47;10.13;;;29.50;61.40;;;;;;5102805;28;20511;-79
2023/07/10 12:14:11;;;;;;;14.03;10.40;;;29.60;60.80;;;;;;5103825;28;20456;-79
2023/07/10 12:16:46;;;;;;;15.63;10.30;;;29.60;60.70;;;;;;5101013;28;20438;-82
2023/07/10 12:19:36;;;;;;;13.90;11.13;;;29.70;60.50;;;;;;5110552;27;20471;-81
2023/07/10 12:22:18;;;;;;;13.90;11.00;;;29.70;60.40;;;;;;5104247;28;20547;-81
2023/07/10 12:24:50;;;;;;;14.57;10.23;;;29.70;60.20;;;;;;5102280;28;20583;-82
2023/07/10 12:27:19;;;;;;;14.13;10.97;;;29.70;60.10;;;;;;5101337;28;20559;-80
2023/07/10 12:29:51;;;;;;;14.03;10.10;;;29.70;59.80;;;;;;5105471;28;20464;-80
2023/07/10 12:32:23;;;;;;;13.20;10.17;;;29.70;59.60;;;;;;5107090;28;20571;-79
2023/07/10 12:34:52;;;;;;;13.23;10.10;;;29.60;59.50;;;;;;5103959;28;20455;-80
2023/07/10 12:37:20;;;;;;;12.90;9.57;;;29.70;59.50;;;;;;5099608;28;20471;-81
2023/07/10 12:39:51;;;;;;;12.40;9.40;;;29.70;59.30;;;;;;5105136;28;20459;-80
2023/07/10 12:42:26;;;;;;;13.30;9.63;;;29.70;59.00;;;;;;5097649;28;20580;-80
2023/07/10 12:44:54;;;;;;;14.77;8.70;;;29.80;58.50;;;;;;5093559;28;20504;-80
2023/07/10 12:47:23;;;;;;;12.20;8.23;;;29.80;58.30;;;;;;5100013;28;20455;-81
2023/07/10 12:49:54;;;;;;;10.47;8.40;;;29.70;58.30;;;;;;5097458;28;20828;-80
2023/07/10 12:52:26;;;;;;;13.80;8.07;;;29.80;58.20;;;;;;5104745;28;20460;-79
2023/07/10 12:54:55;;;;;;;13.97;8.40;;;29.80;58.10;;;;;;5098665;28;20823;-81
2023/07/10 12:57:30;;;;;;;11.47;7.83;;;29.90;58.10;;;;;;5102180;28;20567;-80
2023/07/10 13:00:03;;;;;;;13.03;9.30;;;29.90;57.40;;;;;;5099681;28;20973;-81